sensor_id;sensor_type;location;lat;lon;timestamp;P1;durP1;ratioP1;P2;durP2;ratioP2
41115;SDS011;26861;51.824;4.682;2023-04-03T00:01:02;0.50;;;0.30;;
41115;SDS011;26861;51.824;4.682;2023-04-03T00:03:28;1.67;;;0.50;;
41115;SDS011;26861;51.824;4.682;2023-04-03T00:05:54;0.50;;;0.38;;
41115;SDS011;26861;51.824;4.682;2023-04-03T00:08:20;0.50;;;0.30;;
41115;SDS011;26861;51.824;4.682;2023-04-03T00:10:46;1.00;;;0.32;;
41115;SDS011;26861;51.824;4.682;2023-04-03T00:13:12;0.45;;;0.30;;
41115;SDS011;26861;51.824;4.682;2023-04-03T00:15:38;0.93;;;0.50;;
41115;SDS011;26861;51.824;4.682;2023-04-03T00:18:05;0.30;;;0.30;;
41115;SDS011;26861;51.824;4.682;2023-04-03T00:20:31;0.63;;;0.38;;
41115;SDS011;26861;51.824;4.682;2023-04-03T00:22:57;0.52;;;0.35;;
41115;SDS011;26861;51.824;4.682;2023-04-03T00:25:23;0.35;;;0.35;;
41115;SDS011;26861;51.824;4.682;2023-04-03T00:27:49;0.65;;;0.40;;
41115;SDS011;26861;51.824;4.682;2023-04-03T00:30:16;0.85;;;0.30;;
41115;SDS011;26861;51.824;4.682;2023-04-03T00:32:43;1.30;;;0.38;;
41115;SDS011;26861;51.824;4.682;2023-04-03T00:35:09;0.43;;;0.30;;
41115;SDS011;26861;51.824;4.682;2023-04-03T00:37:35;0.40;;;0.35;;
41115;SDS011;26861;51.824;4.682;2023-04-03T00:40:01;0.30;;;0.30;;
41115;SDS011;26861;51.824;4.682;2023-04-03T00:42:28;0.40;;;0.40;;
41115;SDS011;26861;51.824;4.682;2023-04-03T00:47:22;0.57;;;0.40;;
41115;SDS011;26861;51.824;4.682;2023-04-03T00:49:49;0.52;;;0.30;;
41115;SDS011;26861;51.824;4.682;2023-04-03T00:52:17;0.30;;;0.20;;
41115;SDS011;26861;51.824;4.682;2023-04-03T00:54:46;0.35;;;0.20;;
41115;SDS011;26861;51.824;4.682;2023-04-03T00:57:13;0.28;;;0.20;;
41115;SDS011;26861;51.824;4.682;2023-04-03T00:59:44;0.57;;;0.22;;
41115;SDS011;26861;51.824;4.682;2023-04-03T01:02:15;0.20;;;0.20;;
41115;SDS011;26861;51.824;4.682;2023-04-03T01:04:42;1.02;;;0.40;;
41115;SDS011;26861;51.824;4.682;2023-04-03T01:07:10;0.50;;;0.30;;
41115;SDS011;26861;51.824;4.682;2023-04-03T01:09:42;0.30;;;0.20;;
41115;SDS011;26861;51.824;4.682;2023-04-03T01:12:18;0.30;;;0.30;;
41115;SDS011;26861;51.824;4.682;2023-04-03T01:14:50;0.35;;;0.25;;
41115;SDS011;26861;51.824;4.682;2023-04-03T01:17:28;0.40;;;0.30;;
41115;SDS011;26861;51.824;4.682;2023-04-03T01:23:26;0.32;;;0.25;;
41115;SDS011;26861;51.824;4.682;2023-04-03T01:25:27;0.40;;;0.40;;
41115;SDS011;26861;51.824;4.682;2023-04-03T01:27:53;0.38;;;0.20;;
41115;SDS011;26861;51.824;4.682;2023-04-03T01:30:20;0.50;;;0.30;;
41115;SDS011;26861;51.824;4.682;2023-04-03T01:32:48;0.43;;;0.30;;
41115;SDS011;26861;51.824;4.682;2023-04-03T01:35:14;0.25;;;0.25;;
41115;SDS011;26861;51.824;4.682;2023-04-03T01:37:39;0.50;;;0.20;;
41115;SDS011;26861;51.824;4.682;2023-04-03T01:40:05;0.20;;;0.20;;
41115;SDS011;26861;51.824;4.682;2023-04-03T01:42:32;0.32;;;0.30;;
41115;SDS011;26861;51.824;4.682;2023-04-03T01:44:57;0.50;;;0.32;;
41115;SDS011;26861;51.824;4.682;2023-04-03T01:47:23;0.28;;;0.28;;
41115;SDS011;26861;51.824;4.682;2023-04-03T01:49:49;0.20;;;0.20;;
41115;SDS011;26861;51.824;4.682;2023-04-03T01:52:15;0.30;;;0.30;;
41115;SDS011;26861;51.824;4.682;2023-04-03T01:54:41;0.50;;;0.32;;
41115;SDS011;26861;51.824;4.682;2023-04-03T01:57:07;0.30;;;0.30;;
41115;SDS011;26861;51.824;4.682;2023-04-03T01:59:33;0.93;;;0.30;;
41115;SDS011;26861;51.824;4.682;2023-04-03T02:01:59;1.63;;;0.30;;
41115;SDS011;26861;51.824;4.682;2023-04-03T02:04:25;0.20;;;0.20;;
41115;SDS011;26861;51.824;4.682;2023-04-03T02:06:51;0.50;;;0.30;;
41115;SDS011;26861;51.824;4.682;2023-04-03T02:09:17;0.80;;;0.35;;
41115;SDS011;26861;51.824;4.682;2023-04-03T02:11:43;0.50;;;0.30;;
41115;SDS011;26861;51.824;4.682;2023-04-03T02:14:09;2.03;;;0.50;;
41115;SDS011;26861;51.824;4.682;2023-04-03T02:16:35;0.50;;;0.28;;
41115;SDS011;26861;51.824;4.682;2023-04-03T02:19:02;0.22;;;0.22;;
41115;SDS011;26861;51.824;4.682;2023-04-03T02:21:28;0.65;;;0.30;;
41115;SDS011;26861;51.824;4.682;2023-04-03T02:23:54;0.20;;;0.20;;
41115;SDS011;26861;51.824;4.682;2023-04-03T02:26:20;0.20;;;0.20;;
41115;SDS011;26861;51.824;4.682;2023-04-03T02:28:46;0.40;;;0.28;;
41115;SDS011;26861;51.824;4.682;2023-04-03T02:31:12;0.63;;;0.40;;
41115;SDS011;26861;51.824;4.682;2023-04-03T02:33:38;1.25;;;0.20;;
41115;SDS011;26861;51.824;4.682;2023-04-03T02:36:05;0.35;;;0.30;;
41115;SDS011;26861;51.824;4.682;2023-04-03T02:38:32;0.85;;;0.30;;
41115;SDS011;26861;51.824;4.682;2023-04-03T02:41:02;0.82;;;0.40;;
41115;SDS011;26861;51.824;4.682;2023-04-03T02:43:29;0.15;;;0.15;;
41115;SDS011;26861;51.824;4.682;2023-04-03T02:45:55;0.30;;;0.30;;
41115;SDS011;26861;51.824;4.682;2023-04-03T02:48:21;0.22;;;0.20;;
41115;SDS011;26861;51.824;4.682;2023-04-03T02:50:47;0.25;;;0.20;;
41115;SDS011;26861;51.824;4.682;2023-04-03T02:53:13;0.73;;;0.28;;
41115;SDS011;26861;51.824;4.682;2023-04-03T02:55:40;0.32;;;0.25;;
41115;SDS011;26861;51.824;4.682;2023-04-03T02:58:06;0.40;;;0.32;;
41115;SDS011;26861;51.824;4.682;2023-04-03T03:00:31;0.20;;;0.20;;
41115;SDS011;26861;51.824;4.682;2023-04-03T03:02:57;0.38;;;0.20;;
41115;SDS011;26861;51.824;4.682;2023-04-03T03:05:23;1.10;;;0.73;;
41115;SDS011;26861;51.824;4.682;2023-04-03T03:07:49;0.32;;;0.20;;
41115;SDS011;26861;51.824;4.682;2023-04-03T03:10:15;0.32;;;0.30;;
41115;SDS011;26861;51.824;4.682;2023-04-03T03:12:40;0.40;;;0.40;;
41115;SDS011;26861;51.824;4.682;2023-04-03T03:15:06;0.47;;;0.40;;
41115;SDS011;26861;51.824;4.682;2023-04-03T03:17:33;0.30;;;0.20;;
41115;SDS011;26861;51.824;4.682;2023-04-03T03:19:59;0.60;;;0.30;;
41115;SDS011;26861;51.824;4.682;2023-04-03T03:22:25;0.77;;;0.30;;
41115;SDS011;26861;51.824;4.682;2023-04-03T03:24:51;0.50;;;0.30;;
41115;SDS011;26861;51.824;4.682;2023-04-03T03:27:17;0.65;;;0.30;;
41115;SDS011;26861;51.824;4.682;2023-04-03T03:29:43;0.20;;;0.20;;
41115;SDS011;26861;51.824;4.682;2023-04-03T03:32:09;0.68;;;0.30;;
41115;SDS011;26861;51.824;4.682;2023-04-03T03:34:35;0.50;;;0.40;;
41115;SDS011;26861;51.824;4.682;2023-04-03T03:37:01;1.00;;;0.50;;
41115;SDS011;26861;51.824;4.682;2023-04-03T03:39:28;0.20;;;0.20;;
41115;SDS011;26861;51.824;4.682;2023-04-03T03:41:54;0.43;;;0.32;;
41115;SDS011;26861;51.824;4.682;2023-04-03T03:44:20;0.20;;;0.20;;
41115;SDS011;26861;51.824;4.682;2023-04-03T03:46:46;0.47;;;0.25;;
41115;SDS011;26861;51.824;4.682;2023-04-03T03:49:12;0.70;;;0.32;;
41115;SDS011;26861;51.824;4.682;2023-04-03T03:51:39;0.20;;;0.20;;
41115;SDS011;26861;51.824;4.682;2023-04-03T03:54:06;0.43;;;0.20;;
41115;SDS011;26861;51.824;4.682;2023-04-03T03:56:32;0.28;;;0.28;;
41115;SDS011;26861;51.824;4.682;2023-04-03T03:58:58;0.20;;;0.20;;
41115;SDS011;26861;51.824;4.682;2023-04-03T04:10:44;0.50;;;0.30;;
41115;SDS011;26861;51.824;4.682;2023-04-03T04:13:09;0.32;;;0.28;;
41115;SDS011;26861;51.824;4.682;2023-04-03T04:15:35;0.25;;;0.20;;
41115;SDS011;26861;51.824;4.682;2023-04-03T04:18:01;0.82;;;0.20;;
41115;SDS011;26861;51.824;4.682;2023-04-03T04:20:27;0.25;;;0.25;;
41115;SDS011;26861;51.824;4.682;2023-04-03T04:22:52;0.77;;;0.43;;
41115;SDS011;26861;51.824;4.682;2023-04-03T04:25:18;0.45;;;0.30;;
41115;SDS011;26861;51.824;4.682;2023-04-03T04:27:43;0.57;;;0.40;;
41115;SDS011;26861;51.824;4.682;2023-04-03T04:30:09;0.50;;;0.40;;
41115;SDS011;26861;51.824;4.682;2023-04-03T04:32:36;0.40;;;0.10;;
41115;SDS011;26861;51.824;4.682;2023-04-03T04:35:02;0.50;;;0.40;;
41115;SDS011;26861;51.824;4.682;2023-04-03T04:37:28;0.50;;;0.30;;
41115;SDS011;26861;51.824;4.682;2023-04-03T04:39:54;0.80;;;0.40;;
41115;SDS011;26861;51.824;4.682;2023-04-03T04:42:20;0.70;;;0.60;;
41115;SDS011;26861;51.824;4.682;2023-04-03T04:44:45;0.77;;;0.20;;
41115;SDS011;26861;51.824;4.682;2023-04-03T04:47:11;1.10;;;0.35;;
41115;SDS011;26861;51.824;4.682;2023-04-03T04:49:37;0.40;;;0.40;;
41115;SDS011;26861;51.824;4.682;2023-04-03T04:52:02;0.45;;;0.32;;
41115;SDS011;26861;51.824;4.682;2023-04-03T04:54:28;0.40;;;0.30;;
41115;SDS011;26861;51.824;4.682;2023-04-03T04:56:54;0.30;;;0.20;;
41115;SDS011;26861;51.824;4.682;2023-04-03T04:59:20;0.40;;;0.25;;
41115;SDS011;26861;51.824;4.682;2023-04-03T05:01:46;0.50;;;0.40;;
41115;SDS011;26861;51.824;4.682;2023-04-03T05:04:11;0.57;;;0.30;;
41115;SDS011;26861;51.824;4.682;2023-04-03T05:06:38;0.85;;;0.20;;
41115;SDS011;26861;51.824;4.682;2023-04-03T05:09:03;0.47;;;0.30;;
41115;SDS011;26861;51.824;4.682;2023-04-03T05:11:30;0.68;;;0.20;;
41115;SDS011;26861;51.824;4.682;2023-04-03T05:13:55;0.75;;;0.40;;
41115;SDS011;26861;51.824;4.682;2023-04-03T05:16:21;0.47;;;0.30;;
41115;SDS011;26861;51.824;4.682;2023-04-03T05:18:47;0.40;;;0.30;;
41115;SDS011;26861;51.824;4.682;2023-04-03T05:21:12;0.50;;;0.30;;
41115;SDS011;26861;51.824;4.682;2023-04-03T05:23:38;0.50;;;0.30;;
41115;SDS011;26861;51.824;4.682;2023-04-03T05:26:04;0.65;;;0.30;;
41115;SDS011;26861;51.824;4.682;2023-04-03T05:28:30;0.30;;;0.28;;
41115;SDS011;26861;51.824;4.682;2023-04-03T05:30:57;0.35;;;0.25;;
41115;SDS011;26861;51.824;4.682;2023-04-03T05:33:23;0.93;;;0.40;;
41115;SDS011;26861;51.824;4.682;2023-04-03T05:35:49;0.77;;;0.50;;
41115;SDS011;26861;51.824;4.682;2023-04-03T05:38:15;0.28;;;0.20;;
41115;SDS011;26861;51.824;4.682;2023-04-03T05:40:41;0.40;;;0.30;;
41115;SDS011;26861;51.824;4.682;2023-04-03T05:43:07;1.08;;;0.32;;
41115;SDS011;26861;51.824;4.682;2023-04-03T05:45:32;0.82;;;0.30;;
41115;SDS011;26861;51.824;4.682;2023-04-03T05:47:58;0.73;;;0.30;;
41115;SDS011;26861;51.824;4.682;2023-04-03T05:50:24;0.52;;;0.35;;
41115;SDS011;26861;51.824;4.682;2023-04-03T05:52:50;0.28;;;0.22;;
41115;SDS011;26861;51.824;4.682;2023-04-03T05:55:19;1.23;;;0.40;;
41115;SDS011;26861;51.824;4.682;2023-04-03T05:57:45;0.80;;;0.50;;
41115;SDS011;26861;51.824;4.682;2023-04-03T06:00:15;0.85;;;0.43;;
41115;SDS011;26861;51.824;4.682;2023-04-03T06:02:41;0.60;;;0.43;;
41115;SDS011;26861;51.824;4.682;2023-04-03T06:05:07;1.88;;;0.40;;
41115;SDS011;26861;51.824;4.682;2023-04-03T06:07:34;0.75;;;0.40;;
41115;SDS011;26861;51.824;4.682;2023-04-03T06:10:01;1.67;;;0.40;;
41115;SDS011;26861;51.824;4.682;2023-04-03T06:12:28;0.73;;;0.40;;
41115;SDS011;26861;51.824;4.682;2023-04-03T06:14:55;0.65;;;0.40;;
41115;SDS011;26861;51.824;4.682;2023-04-03T06:17:21;1.52;;;0.52;;
41115;SDS011;26861;51.824;4.682;2023-04-03T06:19:47;1.58;;;0.70;;
41115;SDS011;26861;51.824;4.682;2023-04-03T06:22:13;0.57;;;0.40;;
41115;SDS011;26861;51.824;4.682;2023-04-03T06:24:41;0.35;;;0.32;;
41115;SDS011;26861;51.824;4.682;2023-04-03T06:27:07;0.60;;;0.52;;
41115;SDS011;26861;51.824;4.682;2023-04-03T06:29:33;0.55;;;0.30;;
41115;SDS011;26861;51.824;4.682;2023-04-03T06:31:59;1.55;;;0.80;;
41115;SDS011;26861;51.824;4.682;2023-04-03T06:34:24;0.43;;;0.43;;
41115;SDS011;26861;51.824;4.682;2023-04-03T06:36:50;0.70;;;0.40;;
41115;SDS011;26861;51.824;4.682;2023-04-03T06:39:17;1.40;;;0.40;;
41115;SDS011;26861;51.824;4.682;2023-04-03T06:41:50;1.23;;;0.43;;
41115;SDS011;26861;51.824;4.682;2023-04-03T06:44:16;0.65;;;0.40;;
41115;SDS011;26861;51.824;4.682;2023-04-03T06:46:43;0.95;;;0.43;;
41115;SDS011;26861;51.824;4.682;2023-04-03T06:49:10;0.43;;;0.43;;
41115;SDS011;26861;51.824;4.682;2023-04-03T06:51:36;1.75;;;0.28;;
41115;SDS011;26861;51.824;4.682;2023-04-03T06:54:03;0.82;;;0.50;;
41115;SDS011;26861;51.824;4.682;2023-04-03T06:56:31;1.02;;;0.57;;
41115;SDS011;26861;51.824;4.682;2023-04-03T06:58:57;1.13;;;0.50;;
41115;SDS011;26861;51.824;4.682;2023-04-03T07:01:25;0.88;;;0.40;;
41115;SDS011;26861;51.824;4.682;2023-04-03T07:03:53;2.65;;;0.70;;
41115;SDS011;26861;51.824;4.682;2023-04-03T07:06:20;1.17;;;0.50;;
41115;SDS011;26861;51.824;4.682;2023-04-03T07:08:46;0.40;;;0.40;;
41115;SDS011;26861;51.824;4.682;2023-04-03T07:11:14;1.25;;;0.35;;
41115;SDS011;26861;51.824;4.682;2023-04-03T07:13:41;0.75;;;0.40;;
41115;SDS011;26861;51.824;4.682;2023-04-03T07:16:07;0.75;;;0.40;;
41115;SDS011;26861;51.824;4.682;2023-04-03T07:18:34;1.08;;;0.70;;
41115;SDS011;26861;51.824;4.682;2023-04-03T07:21:01;1.23;;;0.50;;
41115;SDS011;26861;51.824;4.682;2023-04-03T07:23:27;0.63;;;0.43;;
41115;SDS011;26861;51.824;4.682;2023-04-03T07:25:54;0.75;;;0.47;;
41115;SDS011;26861;51.824;4.682;2023-04-03T07:28:20;2.00;;;0.47;;
41115;SDS011;26861;51.824;4.682;2023-04-03T07:30:48;1.67;;;0.65;;
41115;SDS011;26861;51.824;4.682;2023-04-03T07:33:17;1.92;;;0.50;;
41115;SDS011;26861;51.824;4.682;2023-04-03T07:35:44;1.98;;;0.55;;
41115;SDS011;26861;51.824;4.682;2023-04-03T07:38:11;2.65;;;0.40;;
41115;SDS011;26861;51.824;4.682;2023-04-03T07:40:37;0.63;;;0.40;;
41115;SDS011;26861;51.824;4.682;2023-04-03T07:43:04;2.83;;;0.63;;
41115;SDS011;26861;51.824;4.682;2023-04-03T07:45:30;0.70;;;0.40;;
41115;SDS011;26861;51.824;4.682;2023-04-03T07:47:57;1.98;;;0.52;;
41115;SDS011;26861;51.824;4.682;2023-04-03T07:50:23;2.35;;;0.60;;
41115;SDS011;26861;51.824;4.682;2023-04-03T07:52:49;1.70;;;0.73;;
41115;SDS011;26861;51.824;4.682;2023-04-03T07:55:16;1.92;;;0.47;;
41115;SDS011;26861;51.824;4.682;2023-04-03T07:57:42;1.05;;;0.60;;
41115;SDS011;26861;51.824;4.682;2023-04-03T08:00:09;1.42;;;0.47;;
41115;SDS011;26861;51.824;4.682;2023-04-03T08:02:35;1.00;;;0.50;;
41115;SDS011;26861;51.824;4.682;2023-04-03T08:05:02;0.65;;;0.40;;
41115;SDS011;26861;51.824;4.682;2023-04-03T08:07:28;1.45;;;0.55;;
41115;SDS011;26861;51.824;4.682;2023-04-03T08:09:54;0.90;;;0.38;;
41115;SDS011;26861;51.824;4.682;2023-04-03T08:12:20;0.80;;;0.50;;
41115;SDS011;26861;51.824;4.682;2023-04-03T08:14:46;1.17;;;0.75;;
41115;SDS011;26861;51.824;4.682;2023-04-03T08:17:12;0.60;;;0.47;;
41115;SDS011;26861;51.824;4.682;2023-04-03T08:19:39;0.80;;;0.70;;
41115;SDS011;26861;51.824;4.682;2023-04-03T08:22:05;1.17;;;0.60;;
41115;SDS011;26861;51.824;4.682;2023-04-03T08:24:32;2.90;;;0.70;;
41115;SDS011;26861;51.824;4.682;2023-04-03T08:26:59;1.33;;;0.50;;
41115;SDS011;26861;51.824;4.682;2023-04-03T08:29:26;1.00;;;0.50;;
41115;SDS011;26861;51.824;4.682;2023-04-03T08:31:51;1.73;;;0.68;;
41115;SDS011;26861;51.824;4.682;2023-04-03T08:34:18;2.08;;;0.70;;
41115;SDS011;26861;51.824;4.682;2023-04-03T08:36:44;1.67;;;0.82;;
41115;SDS011;26861;51.824;4.682;2023-04-03T08:39:11;0.40;;;0.40;;
41115;SDS011;26861;51.824;4.682;2023-04-03T08:41:38;1.48;;;0.60;;
41115;SDS011;26861;51.824;4.682;2023-04-03T08:44:25;1.05;;;0.45;;
41115;SDS011;26861;51.824;4.682;2023-04-03T08:49:35;2.90;;;0.60;;
41115;SDS011;26861;51.824;4.682;2023-04-03T08:52:18;1.27;;;0.68;;
41115;SDS011;26861;51.824;4.682;2023-04-03T08:54:56;0.70;;;0.43;;
41115;SDS011;26861;51.824;4.682;2023-04-03T08:57:26;1.02;;;0.70;;
41115;SDS011;26861;51.824;4.682;2023-04-03T09:00:26;0.98;;;0.73;;
41115;SDS011;26861;51.824;4.682;2023-04-03T09:02:55;1.65;;;0.55;;
41115;SDS011;26861;51.824;4.682;2023-04-03T09:11:11;2.40;;;0.57;;
41115;SDS011;26861;51.824;4.682;2023-04-03T09:13:57;0.95;;;0.60;;
41115;SDS011;26861;51.824;4.682;2023-04-03T09:19:21;1.25;;;0.52;;
41115;SDS011;26861;51.824;4.682;2023-04-03T09:22:08;1.60;;;0.60;;
41115;SDS011;26861;51.824;4.682;2023-04-03T09:27:40;1.13;;;0.60;;
41115;SDS011;26861;51.824;4.682;2023-04-03T09:30:06;0.60;;;0.40;;
41115;SDS011;26861;51.824;4.682;2023-04-03T09:32:40;2.00;;;0.52;;
41115;SDS011;26861;51.824;4.682;2023-04-03T09:37:48;0.77;;;0.40;;
41115;SDS011;26861;51.824;4.682;2023-04-03T09:42:52;1.60;;;0.80;;
41115;SDS011;26861;51.824;4.682;2023-04-03T09:45:24;1.52;;;0.60;;
41115;SDS011;26861;51.824;4.682;2023-04-03T09:48:08;1.00;;;0.50;;
41115;SDS011;26861;51.824;4.682;2023-04-03T09:50:59;3.17;;;1.13;;
41115;SDS011;26861;51.824;4.682;2023-04-03T09:53:46;3.22;;;0.77;;
41115;SDS011;26861;51.824;4.682;2023-04-03T09:58:42;1.05;;;0.40;;
41115;SDS011;26861;51.824;4.682;2023-04-03T10:01:35;1.08;;;0.50;;
41115;SDS011;26861;51.824;4.682;2023-04-03T10:04:10;0.93;;;0.40;;
41115;SDS011;26861;51.824;4.682;2023-04-03T10:06:42;3.80;;;0.55;;
41115;SDS011;26861;51.824;4.682;2023-04-03T10:12:06;13.20;;;1.13;;
41115;SDS011;26861;51.824;4.682;2023-04-03T10:14:33;10.33;;;1.50;;
41115;SDS011;26861;51.824;4.682;2023-04-03T10:17:18;15.27;;;1.02;;
41115;SDS011;26861;51.824;4.682;2023-04-03T10:20:02;13.88;;;0.77;;
41115;SDS011;26861;51.824;4.682;2023-04-03T10:27:56;5.10;;;1.10;;
41115;SDS011;26861;51.824;4.682;2023-04-03T10:30:30;4.20;;;0.80;;
41115;SDS011;26861;51.824;4.682;2023-04-03T10:47:08;4.22;;;0.73;;
41115;SDS011;26861;51.824;4.682;2023-04-03T10:53:04;6.55;;;0.40;;
41115;SDS011;26861;51.824;4.682;2023-04-03T10:55:52;3.25;;;0.60;;
41115;SDS011;26861;51.824;4.682;2023-04-03T11:00:53;3.42;;;0.68;;
41115;SDS011;26861;51.824;4.682;2023-04-03T11:03:30;3.50;;;0.70;;
41115;SDS011;26861;51.824;4.682;2023-04-03T11:06:10;2.53;;;0.30;;
41115;SDS011;26861;51.824;4.682;2023-04-03T11:08:57;1.63;;;0.50;;
41115;SDS011;26861;51.824;4.682;2023-04-03T11:14:02;3.13;;;0.57;;
41115;SDS011;26861;51.824;4.682;2023-04-03T11:16:43;3.38;;;0.50;;
41115;SDS011;26861;51.824;4.682;2023-04-03T11:19:15;3.97;;;0.80;;
41115;SDS011;26861;51.824;4.682;2023-04-03T11:21:54;0.43;;;0.30;;
41115;SDS011;26861;51.824;4.682;2023-04-03T11:24:29;1.40;;;0.30;;
41115;SDS011;26861;51.824;4.682;2023-04-03T11:26:58;1.67;;;0.30;;
41115;SDS011;26861;51.824;4.682;2023-04-03T11:29:36;2.53;;;0.43;;
41115;SDS011;26861;51.824;4.682;2023-04-03T11:32:11;2.33;;;0.40;;
41115;SDS011;26861;51.824;4.682;2023-04-03T11:34:57;3.30;;;0.80;;
41115;SDS011;26861;51.824;4.682;2023-04-03T11:37:39;2.30;;;0.70;;
41115;SDS011;26861;51.824;4.682;2023-04-03T11:42:52;2.53;;;0.38;;
41115;SDS011;26861;51.824;4.682;2023-04-03T11:45:49;0.30;;;0.27;;
41115;SDS011;26861;51.824;4.682;2023-04-03T11:48:42;2.35;;;0.60;;
41115;SDS011;26861;51.824;4.682;2023-04-03T11:53:43;0.57;;;0.20;;
41115;SDS011;26861;51.824;4.682;2023-04-03T12:01:45;0.52;;;0.38;;
41115;SDS011;26861;51.824;4.682;2023-04-03T12:04:11;2.50;;;0.50;;
41115;SDS011;26861;51.824;4.682;2023-04-03T12:09:34;1.17;;;0.52;;
41115;SDS011;26861;51.824;4.682;2023-04-03T12:12:31;0.80;;;0.40;;
41115;SDS011;26861;51.824;4.682;2023-04-03T12:15:21;0.47;;;0.40;;
41115;SDS011;26861;51.824;4.682;2023-04-03T12:24:36;0.90;;;0.40;;
41115;SDS011;26861;51.824;4.682;2023-04-03T12:40:52;0.30;;;0.30;;
41115;SDS011;26861;51.824;4.682;2023-04-03T12:51:21;0.35;;;0.22;;
41115;SDS011;26861;51.824;4.682;2023-04-03T12:53:56;0.40;;;0.30;;
41115;SDS011;26861;51.824;4.682;2023-04-03T12:56:27;1.15;;;0.63;;
41115;SDS011;26861;51.824;4.682;2023-04-03T12:58:56;0.55;;;0.40;;
41115;SDS011;26861;51.824;4.682;2023-04-03T13:04:24;2.92;;;0.43;;
41115;SDS011;26861;51.824;4.682;2023-04-03T13:06:52;0.77;;;0.50;;
41115;SDS011;26861;51.824;4.682;2023-04-03T13:09:20;1.13;;;0.30;;
41115;SDS011;26861;51.824;4.682;2023-04-03T13:11:47;1.40;;;0.40;;
41115;SDS011;26861;51.824;4.682;2023-04-03T13:14:24;0.63;;;0.30;;
41115;SDS011;26861;51.824;4.682;2023-04-03T13:17:13;0.20;;;0.20;;
41115;SDS011;26861;51.824;4.682;2023-04-03T13:19:40;2.55;;;0.45;;
41115;SDS011;26861;51.824;4.682;2023-04-03T13:24:52;0.75;;;0.52;;
41115;SDS011;26861;51.824;4.682;2023-04-03T13:27:19;0.60;;;0.30;;
41115;SDS011;26861;51.824;4.682;2023-04-03T13:29:49;1.58;;;0.50;;
41115;SDS011;26861;51.824;4.682;2023-04-03T13:32:19;1.05;;;0.38;;
41115;SDS011;26861;51.824;4.682;2023-04-03T13:34:47;0.63;;;0.30;;
41115;SDS011;26861;51.824;4.682;2023-04-03T13:37:21;0.93;;;0.40;;
41115;SDS011;26861;51.824;4.682;2023-04-03T13:42:33;0.50;;;0.40;;
41115;SDS011;26861;51.824;4.682;2023-04-03T13:45:24;0.47;;;0.30;;
41115;SDS011;26861;51.824;4.682;2023-04-03T13:48:06;0.95;;;0.40;;
41115;SDS011;26861;51.824;4.682;2023-04-03T13:50:51;3.42;;;0.63;;
41115;SDS011;26861;51.824;4.682;2023-04-03T13:53:24;0.70;;;0.55;;
41115;SDS011;26861;51.824;4.682;2023-04-03T13:55:53;0.98;;;0.40;;
41115;SDS011;26861;51.824;4.682;2023-04-03T13:58:29;1.77;;;0.57;;
41115;SDS011;26861;51.824;4.682;2023-04-03T14:01:01;1.45;;;0.47;;
41115;SDS011;26861;51.824;4.682;2023-04-03T14:03:40;0.90;;;0.50;;
41115;SDS011;26861;51.824;4.682;2023-04-03T14:06:08;1.17;;;0.40;;
41115;SDS011;26861;51.824;4.682;2023-04-03T14:08:37;0.95;;;0.40;;
41115;SDS011;26861;51.824;4.682;2023-04-03T14:11:03;3.38;;;0.90;;
41115;SDS011;26861;51.824;4.682;2023-04-03T14:13:30;1.08;;;0.63;;
41115;SDS011;26861;51.824;4.682;2023-04-03T14:15:57;0.75;;;0.30;;
41115;SDS011;26861;51.824;4.682;2023-04-03T14:18:23;1.38;;;0.50;;
41115;SDS011;26861;51.824;4.682;2023-04-03T14:20:49;0.82;;;0.30;;
41115;SDS011;26861;51.824;4.682;2023-04-03T14:23:15;1.67;;;0.88;;
41115;SDS011;26861;51.824;4.682;2023-04-03T14:25:42;1.95;;;0.30;;
41115;SDS011;26861;51.824;4.682;2023-04-03T14:28:12;1.85;;;0.40;;
41115;SDS011;26861;51.824;4.682;2023-04-03T14:30:44;1.90;;;0.40;;
41115;SDS011;26861;51.824;4.682;2023-04-03T14:33:13;0.63;;;0.40;;
41115;SDS011;26861;51.824;4.682;2023-04-03T14:35:42;0.88;;;0.40;;
41115;SDS011;26861;51.824;4.682;2023-04-03T14:38:42;1.63;;;0.50;;
41115;SDS011;26861;51.824;4.682;2023-04-03T14:41:01;1.38;;;0.60;;
41115;SDS011;26861;51.824;4.682;2023-04-03T14:43:27;1.30;;;0.50;;
41115;SDS011;26861;51.824;4.682;2023-04-03T14:45:53;1.25;;;0.60;;
41115;SDS011;26861;51.824;4.682;2023-04-03T14:48:21;2.05;;;0.50;;
41115;SDS011;26861;51.824;4.682;2023-04-03T14:50:49;1.27;;;0.43;;
41115;SDS011;26861;51.824;4.682;2023-04-03T14:53:17;0.85;;;0.57;;
41115;SDS011;26861;51.824;4.682;2023-04-03T14:55:48;1.55;;;0.60;;
41115;SDS011;26861;51.824;4.682;2023-04-03T14:58:16;0.88;;;0.60;;
41115;SDS011;26861;51.824;4.682;2023-04-03T15:00:45;1.60;;;0.63;;
41115;SDS011;26861;51.824;4.682;2023-04-03T15:03:12;1.17;;;0.50;;
41115;SDS011;26861;51.824;4.682;2023-04-03T15:05:41;1.17;;;0.40;;
41115;SDS011;26861;51.824;4.682;2023-04-03T15:08:11;1.20;;;0.50;;
41115;SDS011;26861;51.824;4.682;2023-04-03T15:10:50;1.08;;;0.50;;
41115;SDS011;26861;51.824;4.682;2023-04-03T15:13:21;1.50;;;0.57;;
41115;SDS011;26861;51.824;4.682;2023-04-03T15:15:47;0.65;;;0.50;;
41115;SDS011;26861;51.824;4.682;2023-04-03T15:18:19;1.02;;;0.47;;
41115;SDS011;26861;51.824;4.682;2023-04-03T15:20:47;1.67;;;0.65;;
41115;SDS011;26861;51.824;4.682;2023-04-03T15:23:14;0.93;;;0.70;;
41115;SDS011;26861;51.824;4.682;2023-04-03T15:25:42;1.15;;;0.60;;
41115;SDS011;26861;51.824;4.682;2023-04-03T15:28:13;1.10;;;0.63;;
41115;SDS011;26861;51.824;4.682;2023-04-03T15:30:48;1.60;;;0.70;;
41115;SDS011;26861;51.824;4.682;2023-04-03T15:33:15;1.25;;;0.75;;
41115;SDS011;26861;51.824;4.682;2023-04-03T15:35:41;1.40;;;0.73;;
41115;SDS011;26861;51.824;4.682;2023-04-03T15:38:07;1.92;;;0.80;;
41115;SDS011;26861;51.824;4.682;2023-04-03T15:40:34;1.95;;;0.90;;
41115;SDS011;26861;51.824;4.682;2023-04-03T15:43:00;1.33;;;0.50;;
41115;SDS011;26861;51.824;4.682;2023-04-03T15:45:28;1.77;;;0.85;;
41115;SDS011;26861;51.824;4.682;2023-04-03T15:47:55;0.90;;;0.53;;
41115;SDS011;26861;51.824;4.682;2023-04-03T15:50:22;1.33;;;0.50;;
41115;SDS011;26861;51.824;4.682;2023-04-03T15:52:49;6.90;;;0.47;;
41115;SDS011;26861;51.824;4.682;2023-04-03T15:57:46;4.85;;;0.82;;
41115;SDS011;26861;51.824;4.682;2023-04-03T16:00:12;2.97;;;1.10;;
41115;SDS011;26861;51.824;4.682;2023-04-03T16:02:39;3.33;;;0.52;;
41115;SDS011;26861;51.824;4.682;2023-04-03T16:05:06;2.22;;;0.57;;
41115;SDS011;26861;51.824;4.682;2023-04-03T16:07:32;2.60;;;0.70;;
41115;SDS011;26861;51.824;4.682;2023-04-03T16:09:57;0.80;;;0.45;;
41115;SDS011;26861;51.824;4.682;2023-04-03T16:12:23;1.90;;;0.40;;
41115;SDS011;26861;51.824;4.682;2023-04-03T16:14:49;1.30;;;0.70;;
41115;SDS011;26861;51.824;4.682;2023-04-03T16:17:15;1.23;;;0.65;;
41115;SDS011;26861;51.824;4.682;2023-04-03T16:19:41;2.65;;;0.70;;
41115;SDS011;26861;51.824;4.682;2023-04-03T16:22:07;0.45;;;0.45;;
41115;SDS011;26861;51.824;4.682;2023-04-03T16:24:33;1.17;;;0.50;;
41115;SDS011;26861;51.824;4.682;2023-04-03T16:27:00;2.88;;;0.60;;
41115;SDS011;26861;51.824;4.682;2023-04-03T16:29:26;2.13;;;0.77;;
41115;SDS011;26861;51.824;4.682;2023-04-03T16:31:52;1.40;;;0.75;;
41115;SDS011;26861;51.824;4.682;2023-04-03T16:34:17;0.70;;;0.60;;
41115;SDS011;26861;51.824;4.682;2023-04-03T16:36:43;0.80;;;0.50;;
41115;SDS011;26861;51.824;4.682;2023-04-03T16:39:09;1.42;;;0.60;;
41115;SDS011;26861;51.824;4.682;2023-04-03T16:41:35;4.28;;;0.60;;
41115;SDS011;26861;51.824;4.682;2023-04-03T16:44:00;2.42;;;0.73;;
41115;SDS011;26861;51.824;4.682;2023-04-03T16:46:26;3.35;;;0.75;;
41115;SDS011;26861;51.824;4.682;2023-04-03T16:48:52;3.42;;;0.63;;
41115;SDS011;26861;51.824;4.682;2023-04-03T16:51:18;1.08;;;0.60;;
41115;SDS011;26861;51.824;4.682;2023-04-03T16:53:43;1.60;;;0.60;;
41115;SDS011;26861;51.824;4.682;2023-04-03T16:56:09;1.67;;;0.73;;
41115;SDS011;26861;51.824;4.682;2023-04-03T16:58:34;2.95;;;0.50;;